sensor_id;sensor_type;location;lat;lon;timestamp;temperature;humidity
38020;DHT22;23829;51.350;17.286;2022-11-15T00:00:12;20.30;42.70
38020;DHT22;23829;51.350;17.286;2022-11-15T00:03:05;20.20;42.60
38020;DHT22;23829;51.350;17.286;2022-11-15T00:05:51;20.10;42.80
38020;DHT22;23829;51.350;17.286;2022-11-15T00:08:36;20.00;43.00
38020;DHT22;23829;51.350;17.286;2022-11-15T00:11:21;20.00;43.10
38020;DHT22;23829;51.350;17.286;2022-11-15T00:14:06;20.20;42.80
38020;DHT22;23829;51.350;17.286;2022-11-15T00:16:51;20.30;42.70
38020;DHT22;23829;51.350;17.286;2022-11-15T00:19:36;20.30;42.60
38020;DHT22;23829;51.350;17.286;2022-11-15T00:22:21;20.10;42.80
38020;DHT22;23829;51.350;17.286;2022-11-15T00:25:06;20.10;43.00
38020;DHT22;23829;51.350;17.286;2022-11-15T00:27:55;20.00;43.10
38020;DHT22;23829;51.350;17.286;2022-11-15T00:30:40;20.10;43.10
38020;DHT22;23829;51.350;17.286;2022-11-15T00:33:26;20.10;42.70
38020;DHT22;23829;51.350;17.286;2022-11-15T00:36:10;20.10;43.00
38020;DHT22;23829;51.350;17.286;2022-11-15T00:38:55;20.00;43.20
38020;DHT22;23829;51.350;17.286;2022-11-15T00:41:40;20.10;43.00
38020;DHT22;23829;51.350;17.286;2022-11-15T00:44:25;19.90;43.10
38020;DHT22;23829;51.350;17.286;2022-11-15T00:47:10;20.10;43.10
38020;DHT22;23829;51.350;17.286;2022-11-15T00:49:55;20.20;42.80
38020;DHT22;23829;51.350;17.286;2022-11-15T00:52:40;20.30;42.70
38020;DHT22;23829;51.350;17.286;2022-11-15T00:55:25;20.20;42.60
38020;DHT22;23829;51.350;17.286;2022-11-15T00:58:10;20.20;43.20
38020;DHT22;23829;51.350;17.286;2022-11-15T01:00:55;20.10;42.80
38020;DHT22;23829;51.350;17.286;2022-11-15T01:03:41;19.90;43.00
38020;DHT22;23829;51.350;17.286;2022-11-15T01:06:26;19.80;43.30
38020;DHT22;23829;51.350;17.286;2022-11-15T01:09:11;19.80;43.30
38020;DHT22;23829;51.350;17.286;2022-11-15T01:11:56;19.70;43.50
38020;DHT22;23829;51.350;17.286;2022-11-15T01:14:41;19.90;43.20
38020;DHT22;23829;51.350;17.286;2022-11-15T01:17:27;20.30;42.70
38020;DHT22;23829;51.350;17.286;2022-11-15T01:20:11;20.50;42.00
38020;DHT22;23829;51.350;17.286;2022-11-15T01:22:56;20.70;41.70
38020;DHT22;23829;51.350;17.286;2022-11-15T01:25:41;20.80;41.30
38020;DHT22;23829;51.350;17.286;2022-11-15T01:28:31;21.10;40.50
38020;DHT22;23829;51.350;17.286;2022-11-15T01:31:19;21.20;40.10
38020;DHT22;23829;51.350;17.286;2022-11-15T01:34:04;21.00;40.60
38020;DHT22;23829;51.350;17.286;2022-11-15T01:36:49;21.10;40.30
38020;DHT22;23829;51.350;17.286;2022-11-15T01:39:34;21.00;40.50
38020;DHT22;23829;51.350;17.286;2022-11-15T01:42:19;20.90;40.50
38020;DHT22;23829;51.350;17.286;2022-11-15T01:45:05;20.70;40.90
38020;DHT22;23829;51.350;17.286;2022-11-15T01:47:52;20.70;40.90
38020;DHT22;23829;51.350;17.286;2022-11-15T01:50:38;20.60;41.10
38020;DHT22;23829;51.350;17.286;2022-11-15T01:53:23;20.50;41.60
38020;DHT22;23829;51.350;17.286;2022-11-15T01:56:13;20.80;41.70
38020;DHT22;23829;51.350;17.286;2022-11-15T01:59:03;20.90;40.70
38020;DHT22;23829;51.350;17.286;2022-11-15T02:01:49;20.80;40.90
38020;DHT22;23829;51.350;17.286;2022-11-15T02:04:43;20.80;40.90
38020;DHT22;23829;51.350;17.286;2022-11-15T02:07:31;20.80;40.90
38020;DHT22;23829;51.350;17.286;2022-11-15T02:10:22;21.00;40.40
38020;DHT22;23829;51.350;17.286;2022-11-15T02:13:07;21.00;40.40
38020;DHT22;23829;51.350;17.286;2022-11-15T02:16:14;21.00;40.10
38020;DHT22;23829;51.350;17.286;2022-11-15T02:38:00;20.00;42.20
38020;DHT22;23829;51.350;17.286;2022-11-15T02:41:09;20.10;41.90
38020;DHT22;23829;51.350;17.286;2022-11-15T02:44:08;20.10;41.80
38020;DHT22;23829;51.350;17.286;2022-11-15T02:47:16;19.90;42.30
38020;DHT22;23829;51.350;17.286;2022-11-15T02:50:08;20.00;42.10
38020;DHT22;23829;51.350;17.286;2022-11-15T02:52:53;20.20;41.70
38020;DHT22;23829;51.350;17.286;2022-11-15T02:55:43;19.80;42.30
38020;DHT22;23829;51.350;17.286;2022-11-15T02:58:36;19.80;42.50
38020;DHT22;23829;51.350;17.286;2022-11-15T03:01:46;20.10;42.10
38020;DHT22;23829;51.350;17.286;2022-11-15T03:04:42;20.30;41.70
38020;DHT22;23829;51.350;17.286;2022-11-15T03:07:47;20.30;41.30
38020;DHT22;23829;51.350;17.286;2022-11-15T03:19:50;20.20;41.50
38020;DHT22;23829;51.350;17.286;2022-11-15T03:22:43;20.20;41.60
38020;DHT22;23829;51.350;17.286;2022-11-15T03:25:30;20.10;41.50
38020;DHT22;23829;51.350;17.286;2022-11-15T03:28:32;19.90;42.00
38020;DHT22;23829;51.350;17.286;2022-11-15T03:31:19;20.00;41.70
38020;DHT22;23829;51.350;17.286;2022-11-15T03:37:13;20.00;41.80
38020;DHT22;23829;51.350;17.286;2022-11-15T03:40:00;19.80;42.20
38020;DHT22;23829;51.350;17.286;2022-11-15T03:42:54;19.90;42.10
38020;DHT22;23829;51.350;17.286;2022-11-15T03:46:01;19.90;41.90
38020;DHT22;23829;51.350;17.286;2022-11-15T03:48:51;19.90;42.10
38020;DHT22;23829;51.350;17.286;2022-11-15T03:51:36;19.70;42.40
38020;DHT22;23829;51.350;17.286;2022-11-15T03:54:21;19.60;42.50
38020;DHT22;23829;51.350;17.286;2022-11-15T03:57:06;19.60;42.70
38020;DHT22;23829;51.350;17.286;2022-11-15T03:59:51;19.60;42.50
38020;DHT22;23829;51.350;17.286;2022-11-15T04:02:36;19.50;42.70
38020;DHT22;23829;51.350;17.286;2022-11-15T04:05:21;19.40;43.30
38020;DHT22;23829;51.350;17.286;2022-11-15T04:08:06;19.50;42.90
38020;DHT22;23829;51.350;17.286;2022-11-15T04:10:51;19.40;43.20
38020;DHT22;23829;51.350;17.286;2022-11-15T04:13:36;19.30;43.30
38020;DHT22;23829;51.350;17.286;2022-11-15T04:16:21;19.20;43.70
38020;DHT22;23829;51.350;17.286;2022-11-15T04:19:06;19.30;43.30
38020;DHT22;23829;51.350;17.286;2022-11-15T04:22:09;19.30;43.30
38020;DHT22;23829;51.350;17.286;2022-11-15T04:25:13;19.20;43.20
38020;DHT22;23829;51.350;17.286;2022-11-15T04:27:58;19.10;43.60
38020;DHT22;23829;51.350;17.286;2022-11-15T04:30:43;19.20;43.40
38020;DHT22;23829;51.350;17.286;2022-11-15T04:33:28;19.20;43.30
38020;DHT22;23829;51.350;17.286;2022-11-15T04:36:13;18.90;43.70
38020;DHT22;23829;51.350;17.286;2022-11-15T04:39:16;18.80;44.20
38020;DHT22;23829;51.350;17.286;2022-11-15T04:42:01;19.00;43.80
38020;DHT22;23829;51.350;17.286;2022-11-15T04:44:46;19.10;43.30
38020;DHT22;23829;51.350;17.286;2022-11-15T04:47:31;18.90;43.80
38020;DHT22;23829;51.350;17.286;2022-11-15T04:50:16;19.10;43.50
38020;DHT22;23829;51.350;17.286;2022-11-15T04:53:01;19.00;43.60
38020;DHT22;23829;51.350;17.286;2022-11-15T04:55:46;18.80;44.10
38020;DHT22;23829;51.350;17.286;2022-11-15T04:58:31;18.80;43.90
38020;DHT22;23829;51.350;17.286;2022-11-15T05:01:16;18.80;44.10
38020;DHT22;23829;51.350;17.286;2022-11-15T05:04:01;18.90;44.10
38020;DHT22;23829;51.350;17.286;2022-11-15T05:07:05;18.80;44.20
38020;DHT22;23829;51.350;17.286;2022-11-15T05:09:49;18.90;44.00
38020;DHT22;23829;51.350;17.286;2022-11-15T05:12:35;18.90;44.10
38020;DHT22;23829;51.350;17.286;2022-11-15T05:15:20;18.80;44.20
38020;DHT22;23829;51.350;17.286;2022-11-15T05:18:05;19.10;44.00
38020;DHT22;23829;51.350;17.286;2022-11-15T05:20:50;19.10;43.80
38020;DHT22;23829;51.350;17.286;2022-11-15T05:23:35;19.00;44.10
38020;DHT22;23829;51.350;17.286;2022-11-15T05:26:20;18.90;44.10
38020;DHT22;23829;51.350;17.286;2022-11-15T05:29:06;19.10;44.10
38020;DHT22;23829;51.350;17.286;2022-11-15T05:31:50;18.90;44.10
38020;DHT22;23829;51.350;17.286;2022-11-15T05:34:35;18.90;44.10
38020;DHT22;23829;51.350;17.286;2022-11-15T05:37:20;18.70;44.40
38020;DHT22;23829;51.350;17.286;2022-11-15T05:40:06;19.00;44.10
38020;DHT22;23829;51.350;17.286;2022-11-15T05:42:51;19.00;43.80
38020;DHT22;23829;51.350;17.286;2022-11-15T05:45:36;19.10;43.60
38020;DHT22;23829;51.350;17.286;2022-11-15T05:48:21;19.30;43.00
38020;DHT22;23829;51.350;17.286;2022-11-15T05:51:07;19.40;42.90
38020;DHT22;23829;51.350;17.286;2022-11-15T05:53:53;19.40;42.80
38020;DHT22;23829;51.350;17.286;2022-11-15T05:56:40;19.50;42.70
38020;DHT22;23829;51.350;17.286;2022-11-15T05:59:24;19.50;42.40
38020;DHT22;23829;51.350;17.286;2022-11-15T06:02:11;19.60;42.30
38020;DHT22;23829;51.350;17.286;2022-11-15T06:04:55;19.80;42.00
38020;DHT22;23829;51.350;17.286;2022-11-15T06:07:41;20.00;41.40
38020;DHT22;23829;51.350;17.286;2022-11-15T06:10:26;20.10;41.20
38020;DHT22;23829;51.350;17.286;2022-11-15T06:13:11;20.20;40.70
38020;DHT22;23829;51.350;17.286;2022-11-15T06:15:56;20.00;40.90
38020;DHT22;23829;51.350;17.286;2022-11-15T06:18:41;19.80;41.30
38020;DHT22;23829;51.350;17.286;2022-11-15T06:21:26;19.60;41.70
38020;DHT22;23829;51.350;17.286;2022-11-15T06:24:12;19.70;41.60
38020;DHT22;23829;51.350;17.286;2022-11-15T06:26:57;19.60;41.50
38020;DHT22;23829;51.350;17.286;2022-11-15T06:29:42;19.40;42.00
38020;DHT22;23829;51.350;17.286;2022-11-15T06:32:29;19.00;42.90
38020;DHT22;23829;51.350;17.286;2022-11-15T06:35:15;18.60;43.90
38020;DHT22;23829;51.350;17.286;2022-11-15T06:38:05;18.90;43.60
38020;DHT22;23829;51.350;17.286;2022-11-15T06:40:50;19.20;43.10
38020;DHT22;23829;51.350;17.286;2022-11-15T06:43:36;19.40;42.80
38020;DHT22;23829;51.350;17.286;2022-11-15T06:46:21;19.70;42.30
38020;DHT22;23829;51.350;17.286;2022-11-15T06:49:05;19.70;42.30
38020;DHT22;23829;51.350;17.286;2022-11-15T06:51:51;19.60;42.60
38020;DHT22;23829;51.350;17.286;2022-11-15T06:54:35;19.60;42.60
38020;DHT22;23829;51.350;17.286;2022-11-15T06:57:20;19.90;42.20
38020;DHT22;23829;51.350;17.286;2022-11-15T07:00:05;20.20;41.80
38020;DHT22;23829;51.350;17.286;2022-11-15T07:02:50;20.10;42.70
38020;DHT22;23829;51.350;17.286;2022-11-15T07:05:36;20.00;42.00
38020;DHT22;23829;51.350;17.286;2022-11-15T07:08:22;20.00;42.10
38020;DHT22;23829;51.350;17.286;2022-11-15T07:11:08;20.30;42.00
38020;DHT22;23829;51.350;17.286;2022-11-15T07:13:53;20.50;41.60
38020;DHT22;23829;51.350;17.286;2022-11-15T07:16:38;20.90;40.90
38020;DHT22;23829;51.350;17.286;2022-11-15T07:19:23;21.20;40.60
38020;DHT22;23829;51.350;17.286;2022-11-15T07:22:08;21.20;40.50
38020;DHT22;23829;51.350;17.286;2022-11-15T07:24:53;21.30;40.40
38020;DHT22;23829;51.350;17.286;2022-11-15T07:27:38;21.30;40.40
38020;DHT22;23829;51.350;17.286;2022-11-15T07:30:24;21.20;40.80
38020;DHT22;23829;51.350;17.286;2022-11-15T07:33:09;21.30;40.70
38020;DHT22;23829;51.350;17.286;2022-11-15T07:35:58;21.40;40.60
38020;DHT22;23829;51.350;17.286;2022-11-15T07:38:43;21.50;40.60
38020;DHT22;23829;51.350;17.286;2022-11-15T07:41:29;21.70;40.30
38020;DHT22;23829;51.350;17.286;2022-11-15T07:44:14;22.00;39.70
38020;DHT22;23829;51.350;17.286;2022-11-15T07:46:59;22.00;39.70
38020;DHT22;23829;51.350;17.286;2022-11-15T07:49:44;21.90;40.00
38020;DHT22;23829;51.350;17.286;2022-11-15T07:52:31;22.10;39.90
38020;DHT22;23829;51.350;17.286;2022-11-15T07:55:15;22.30;39.60
38020;DHT22;23829;51.350;17.286;2022-11-15T07:58:04;22.40;39.40
38020;DHT22;23829;51.350;17.286;2022-11-15T08:00:50;22.60;39.20
38020;DHT22;23829;51.350;17.286;2022-11-15T08:03:35;22.70;39.00
38020;DHT22;23829;51.350;17.286;2022-11-15T08:06:20;22.70;39.00
38020;DHT22;23829;51.350;17.286;2022-11-15T08:09:06;22.80;38.90
38020;DHT22;23829;51.350;17.286;2022-11-15T08:11:50;22.90;38.70
38020;DHT22;23829;51.350;17.286;2022-11-15T08:14:35;23.00;38.70
38020;DHT22;23829;51.350;17.286;2022-11-15T08:17:20;23.00;38.70
38020;DHT22;23829;51.350;17.286;2022-11-15T08:20:06;22.90;39.00
38020;DHT22;23829;51.350;17.286;2022-11-15T08:22:51;22.80;40.00
38020;DHT22;23829;51.350;17.286;2022-11-15T08:25:36;22.90;39.20
38020;DHT22;23829;51.350;17.286;2022-11-15T08:28:21;23.10;38.90
38020;DHT22;23829;51.350;17.286;2022-11-15T08:31:06;23.20;38.70
38020;DHT22;23829;51.350;17.286;2022-11-15T08:33:51;23.30;39.30
38020;DHT22;23829;51.350;17.286;2022-11-15T08:36:37;23.30;38.70
38020;DHT22;23829;51.350;17.286;2022-11-15T08:39:21;23.40;38.60
38020;DHT22;23829;51.350;17.286;2022-11-15T08:42:06;23.40;38.80
38020;DHT22;23829;51.350;17.286;2022-11-15T08:44:51;23.50;38.60
38020;DHT22;23829;51.350;17.286;2022-11-15T08:47:36;23.60;38.80
38020;DHT22;23829;51.350;17.286;2022-11-15T08:50:21;23.70;39.00
38020;DHT22;23829;51.350;17.286;2022-11-15T08:53:07;23.80;38.50
38020;DHT22;23829;51.350;17.286;2022-11-15T08:55:53;23.90;38.60
38020;DHT22;23829;51.350;17.286;2022-11-15T08:58:38;24.10;38.30
38020;DHT22;23829;51.350;17.286;2022-11-15T09:01:26;24.10;38.70
38020;DHT22;23829;51.350;17.286;2022-11-15T09:04:11;24.20;38.70
38020;DHT22;23829;51.350;17.286;2022-11-15T09:06:56;24.30;37.80
38020;DHT22;23829;51.350;17.286;2022-11-15T09:09:41;24.50;37.90
38020;DHT22;23829;51.350;17.286;2022-11-15T09:12:26;24.60;38.10
38020;DHT22;23829;51.350;17.286;2022-11-15T09:15:11;24.60;37.60
38020;DHT22;23829;51.350;17.286;2022-11-15T09:17:58;24.60;37.40
38020;DHT22;23829;51.350;17.286;2022-11-15T09:20:44;24.70;38.00
38020;DHT22;23829;51.350;17.286;2022-11-15T09:23:31;24.60;38.40
38020;DHT22;23829;51.350;17.286;2022-11-15T09:26:17;24.70;38.10
38020;DHT22;23829;51.350;17.286;2022-11-15T09:29:02;24.70;38.00
38020;DHT22;23829;51.350;17.286;2022-11-15T09:31:47;24.80;38.20
38020;DHT22;23829;51.350;17.286;2022-11-15T09:34:32;25.00;37.30
38020;DHT22;23829;51.350;17.286;2022-11-15T09:37:17;24.80;37.80
38020;DHT22;23829;51.350;17.286;2022-11-15T09:40:02;24.80;37.90
38020;DHT22;23829;51.350;17.286;2022-11-15T09:43:00;25.00;37.50
38020;DHT22;23829;51.350;17.286;2022-11-15T09:51:39;25.30;37.70
38020;DHT22;23829;51.350;17.286;2022-11-15T09:54:33;25.50;37.30
38020;DHT22;23829;51.350;17.286;2022-11-15T09:57:11;25.60;37.10
38020;DHT22;23829;51.350;17.286;2022-11-15T10:05:45;25.50;37.30
38020;DHT22;23829;51.350;17.286;2022-11-15T10:08:34;25.30;37.20
38020;DHT22;23829;51.350;17.286;2022-11-15T10:11:06;25.60;36.60
38020;DHT22;23829;51.350;17.286;2022-11-15T10:13:41;25.60;37.00
38020;DHT22;23829;51.350;17.286;2022-11-15T10:19:15;25.70;36.90
38020;DHT22;23829;51.350;17.286;2022-11-15T10:21:56;25.80;36.50
38020;DHT22;23829;51.350;17.286;2022-11-15T10:24:28;25.70;36.80
38020;DHT22;23829;51.350;17.286;2022-11-15T10:26:55;25.80;36.50
38020;DHT22;23829;51.350;17.286;2022-11-15T10:29:24;25.90;36.50
38020;DHT22;23829;51.350;17.286;2022-11-15T10:31:50;26.00;36.30
38020;DHT22;23829;51.350;17.286;2022-11-15T10:34:20;25.70;36.80
38020;DHT22;23829;51.350;17.286;2022-11-15T10:36:54;25.60;36.70
38020;DHT22;23829;51.350;17.286;2022-11-15T10:39:24;25.60;36.50
38020;DHT22;23829;51.350;17.286;2022-11-15T10:41:51;25.80;36.80
38020;DHT22;23829;51.350;17.286;2022-11-15T10:46:48;26.10;36.30
38020;DHT22;23829;51.350;17.286;2022-11-15T10:49:18;26.10;36.50
38020;DHT22;23829;51.350;17.286;2022-11-15T10:51:48;26.30;36.60
38020;DHT22;23829;51.350;17.286;2022-11-15T10:54:27;26.20;36.20
38020;DHT22;23829;51.350;17.286;2022-11-15T10:56:57;26.30;35.80
38020;DHT22;23829;51.350;17.286;2022-11-15T10:59:31;26.20;36.20
38020;DHT22;23829;51.350;17.286;2022-11-15T11:01:59;26.10;36.50
38020;DHT22;23829;51.350;17.286;2022-11-15T11:04:26;26.00;36.50
38020;DHT22;23829;51.350;17.286;2022-11-15T11:06:57;26.10;36.50
38020;DHT22;23829;51.350;17.286;2022-11-15T11:12:03;26.00;36.20
38020;DHT22;23829;51.350;17.286;2022-11-15T11:14:33;26.30;36.00
38020;DHT22;23829;51.350;17.286;2022-11-15T11:33:31;26.70;36.00
38020;DHT22;23829;51.350;17.286;2022-11-15T11:36:17;26.70;36.00
38020;DHT22;23829;51.350;17.286;2022-11-15T11:39:23;26.60;35.90
38020;DHT22;23829;51.350;17.286;2022-11-15T11:42:00;26.60;36.10
38020;DHT22;23829;51.350;17.286;2022-11-15T11:47:24;26.70;36.20
38020;DHT22;23829;51.350;17.286;2022-11-15T11:50:02;26.80;35.70
38020;DHT22;23829;51.350;17.286;2022-11-15T11:52:37;26.90;36.30
38020;DHT22;23829;51.350;17.286;2022-11-15T11:55:24;26.90;35.90
38020;DHT22;23829;51.350;17.286;2022-11-15T11:58:11;26.80;35.70
38020;DHT22;23829;51.350;17.286;2022-11-15T12:00:43;26.70;35.90
38020;DHT22;23829;51.350;17.286;2022-11-15T12:03:19;26.80;36.00
38020;DHT22;23829;51.350;17.286;2022-11-15T12:06:36;26.80;36.50
38020;DHT22;23829;51.350;17.286;2022-11-15T12:12:15;26.80;36.10
38020;DHT22;23829;51.350;17.286;2022-11-15T12:17:40;27.00;37.30
38020;DHT22;23829;51.350;17.286;2022-11-15T12:20:16;27.10;37.10
38020;DHT22;23829;51.350;17.286;2022-11-15T12:23:01;26.90;37.30
38020;DHT22;23829;51.350;17.286;2022-11-15T12:25:52;26.70;37.70
38020;DHT22;23829;51.350;17.286;2022-11-15T12:28:35;26.60;37.90
38020;DHT22;23829;51.350;17.286;2022-11-15T12:38:59;26.30;38.90
38020;DHT22;23829;51.350;17.286;2022-11-15T13:02:24;26.90;38.10
38020;DHT22;23829;51.350;17.286;2022-11-15T13:04:54;26.90;38.00
38020;DHT22;23829;51.350;17.286;2022-11-15T13:17:50;26.70;38.10
38020;DHT22;23829;51.350;17.286;2022-11-15T13:20:28;26.70;38.20
38020;DHT22;23829;51.350;17.286;2022-11-15T13:23:07;26.80;38.10
38020;DHT22;23829;51.350;17.286;2022-11-15T13:26:12;26.80;38.00
38020;DHT22;23829;51.350;17.286;2022-11-15T13:28:50;26.80;37.80
38020;DHT22;23829;51.350;17.286;2022-11-15T13:31:47;26.80;37.80
38020;DHT22;23829;51.350;17.286;2022-11-15T13:36:47;26.80;37.70
38020;DHT22;23829;51.350;17.286;2022-11-15T13:39:30;26.80;37.80
38020;DHT22;23829;51.350;17.286;2022-11-15T13:41:58;26.80;37.80
38020;DHT22;23829;51.350;17.286;2022-11-15T13:44:27;26.80;37.70
38020;DHT22;23829;51.350;17.286;2022-11-15T13:47:06;26.70;37.80
38020;DHT22;23829;51.350;17.286;2022-11-15T13:49:33;26.70;38.50
38020;DHT22;23829;51.350;17.286;2022-11-15T13:52:04;26.70;37.90
38020;DHT22;23829;51.350;17.286;2022-11-15T13:54:36;26.60;37.60
38020;DHT22;23829;51.350;17.286;2022-11-15T13:57:21;26.60;37.70
38020;DHT22;23829;51.350;17.286;2022-11-15T13:59:51;26.60;37.70
38020;DHT22;23829;51.350;17.286;2022-11-15T14:02:30;26.60;37.60
38020;DHT22;23829;51.350;17.286;2022-11-15T14:05:02;26.60;37.60
38020;DHT22;23829;51.350;17.286;2022-11-15T14:07:29;26.50;37.60
38020;DHT22;23829;51.350;17.286;2022-11-15T14:09:56;26.40;37.30
38020;DHT22;23829;51.350;17.286;2022-11-15T14:12:32;26.40;37.40
38020;DHT22;23829;51.350;17.286;2022-11-15T14:15:24;26.40;37.30
38020;DHT22;23829;51.350;17.286;2022-11-15T14:17:52;26.40;37.70
38020;DHT22;23829;51.350;17.286;2022-11-15T14:20:38;26.40;37.50
38020;DHT22;23829;51.350;17.286;2022-11-15T14:23:19;26.40;37.50
38020;DHT22;23829;51.350;17.286;2022-11-15T14:25:57;26.30;37.30
38020;DHT22;23829;51.350;17.286;2022-11-15T14:30:52;26.20;37.30
38020;DHT22;23829;51.350;17.286;2022-11-15T14:33:33;26.10;37.40
38020;DHT22;23829;51.350;17.286;2022-11-15T14:38:40;26.00;37.20
38020;DHT22;23829;51.350;17.286;2022-11-15T14:41:26;25.90;37.10
38020;DHT22;23829;51.350;17.286;2022-11-15T14:43:53;25.90;37.30
38020;DHT22;23829;51.350;17.286;2022-11-15T14:46:19;25.80;36.90
38020;DHT22;23829;51.350;17.286;2022-11-15T14:48:46;25.80;36.90
38020;DHT22;23829;51.350;17.286;2022-11-15T14:51:17;25.70;36.90
38020;DHT22;23829;51.350;17.286;2022-11-15T14:53:45;25.60;36.70
38020;DHT22;23829;51.350;17.286;2022-11-15T14:56:11;25.60;36.70
38020;DHT22;23829;51.350;17.286;2022-11-15T14:58:38;25.60;37.10
38020;DHT22;23829;51.350;17.286;2022-11-15T15:01:24;25.50;36.90
38020;DHT22;23829;51.350;17.286;2022-11-15T15:03:53;25.40;37.00
38020;DHT22;23829;51.350;17.286;2022-11-15T15:06:23;25.50;36.70
38020;DHT22;23829;51.350;17.286;2022-11-15T15:08:49;25.40;36.60
38020;DHT22;23829;51.350;17.286;2022-11-15T15:11:24;25.30;36.70
38020;DHT22;23829;51.350;17.286;2022-11-15T15:13:51;25.40;36.40
38020;DHT22;23829;51.350;17.286;2022-11-15T15:16:19;25.30;35.70
38020;DHT22;23829;51.350;17.286;2022-11-15T15:18:45;25.20;36.00
38020;DHT22;23829;51.350;17.286;2022-11-15T15:21:27;25.00;36.20
38020;DHT22;23829;51.350;17.286;2022-11-15T15:23:54;25.00;36.40
38020;DHT22;23829;51.350;17.286;2022-11-15T15:26:21;24.90;35.90
38020;DHT22;23829;51.350;17.286;2022-11-15T15:28:49;24.90;36.00
38020;DHT22;23829;51.350;17.286;2022-11-15T15:31:17;24.70;36.40
38020;DHT22;23829;51.350;17.286;2022-11-15T15:33:44;24.70;36.60
38020;DHT22;23829;51.350;17.286;2022-11-15T15:36:12;24.70;36.70
38020;DHT22;23829;51.350;17.286;2022-11-15T15:38:39;24.50;36.70
38020;DHT22;23829;51.350;17.286;2022-11-15T15:41:11;24.50;36.80
38020;DHT22;23829;51.350;17.286;2022-11-15T15:43:38;24.50;36.60
38020;DHT22;23829;51.350;17.286;2022-11-15T15:46:14;24.40;35.90
38020;DHT22;23829;51.350;17.286;2022-11-15T15:48:41;24.40;36.20
38020;DHT22;23829;51.350;17.286;2022-11-15T15:51:08;24.30;36.20
38020;DHT22;23829;51.350;17.286;2022-11-15T15:53:34;24.30;35.60
38020;DHT22;23829;51.350;17.286;2022-11-15T15:56:01;24.30;36.00
38020;DHT22;23829;51.350;17.286;2022-11-15T15:58:27;24.20;36.80
38020;DHT22;23829;51.350;17.286;2022-11-15T16:00:53;24.10;37.40
38020;DHT22;23829;51.350;17.286;2022-11-15T16:03:20;24.20;36.80
38020;DHT22;23829;51.350;17.286;2022-11-15T16:05:46;24.20;36.50
38020;DHT22;23829;51.350;17.286;2022-11-15T16:08:23;24.10;36.80
38020;DHT22;23829;51.350;17.286;2022-11-15T16:10:50;24.10;36.30
38020;DHT22;23829;51.350;17.286;2022-11-15T16:13:17;24.00;36.50
38020;DHT22;23829;51.350;17.286;2022-11-15T16:15:43;24.00;36.50
38020;DHT22;23829;51.350;17.286;2022-11-15T16:18:16;24.00;36.10
38020;DHT22;23829;51.350;17.286;2022-11-15T16:20:47;23.90;36.20
38020;DHT22;23829;51.350;17.286;2022-11-15T16:23:17;23.90;35.90
38020;DHT22;23829;51.350;17.286;2022-11-15T16:25:56;23.90;35.80
38020;DHT22;23829;51.350;17.286;2022-11-15T16:28:29;23.90;35.60
38020;DHT22;23829;51.350;17.286;2022-11-15T16:31:09;23.90;35.50
38020;DHT22;23829;51.350;17.286;2022-11-15T16:33:37;23.90;35.70
38020;DHT22;23829;51.350;17.286;2022-11-15T16:36:05;23.90;35.60
38020;DHT22;23829;51.350;17.286;2022-11-15T16:38:32;23.90;35.50
38020;DHT22;23829;51.350;17.286;2022-11-15T16:40:58;23.90;35.70
38020;DHT22;23829;51.350;17.286;2022-11-15T16:43:25;23.80;35.60
38020;DHT22;23829;51.350;17.286;2022-11-15T16:45:51;23.70;36.00
38020;DHT22;23829;51.350;17.286;2022-11-15T16:48:27;23.60;35.90
38020;DHT22;23829;51.350;17.286;2022-11-15T16:50:55;23.60;36.10
38020;DHT22;23829;51.350;17.286;2022-11-15T16:53:22;23.50;36.50
38020;DHT22;23829;51.350;17.286;2022-11-15T16:55:48;23.40;36.50
38020;DHT22;23829;51.350;17.286;2022-11-15T16:58:15;23.40;36.30
38020;DHT22;23829;51.350;17.286;2022-11-15T17:00:41;23.40;36.00
38020;DHT22;23829;51.350;17.286;2022-11-15T17:03:08;23.40;35.90
38020;DHT22;23829;51.350;17.286;2022-11-15T17:05:34;23.30;36.10
38020;DHT22;23829;51.350;17.286;2022-11-15T17:08:01;23.20;36.50
38020;DHT22;23829;51.350;17.286;2022-11-15T17:10:27;23.20;36.60
38020;DHT22;23829;51.350;17.286;2022-11-15T17:12:55;23.10;36.50
38020;DHT22;23829;51.350;17.286;2022-11-15T17:15:21;23.00;36.40
38020;DHT22;23829;51.350;17.286;2022-11-15T17:17:53;23.10;36.20
38020;DHT22;23829;51.350;17.286;2022-11-15T17:20:21;23.00;36.20
38020;DHT22;23829;51.350;17.286;2022-11-15T17:22:49;23.10;35.70
38020;DHT22;23829;51.350;17.286;2022-11-15T17:25:15;23.20;35.50
38020;DHT22;23829;51.350;17.286;2022-11-15T17:27:42;23.20;35.50
38020;DHT22;23829;51.350;17.286;2022-11-15T17:30:13;23.20;35.40
38020;DHT22;23829;51.350;17.286;2022-11-15T17:32:42;23.30;35.30
38020;DHT22;23829;51.350;17.286;2022-11-15T17:35:10;23.20;35.50
38020;DHT22;23829;51.350;17.286;2022-11-15T17:37:38;23.10;35.90
38020;DHT22;23829;51.350;17.286;2022-11-15T17:40:04;22.90;35.90
38020;DHT22;23829;51.350;17.286;2022-11-15T17:42:31;22.90;36.00
38020;DHT22;23829;51.350;17.286;2022-11-15T17:44:57;22.90;35.80
38020;DHT22;23829;51.350;17.286;2022-11-15T17:47:24;22.90;35.60
38020;DHT22;23829;51.350;17.286;2022-11-15T17:49:50;22.80;35.80
38020;DHT22;23829;51.350;17.286;2022-11-15T17:52:17;22.80;35.90
38020;DHT22;23829;51.350;17.286;2022-11-15T17:54:43;22.80;35.80
38020;DHT22;23829;51.350;17.286;2022-11-15T17:57:10;22.70;35.90
38020;DHT22;23829;51.350;17.286;2022-11-15T17:59:36;22.70;36.00
38020;DHT22;23829;51.350;17.286;2022-11-15T18:02:02;22.70;35.90
38020;DHT22;23829;51.350;17.286;2022-11-15T18:04:29;22.80;35.90
38020;DHT22;23829;51.350;17.286;2022-11-15T18:06:55;22.80;36.00
38020;DHT22;23829;51.350;17.286;2022-11-15T18:09:21;22.80;36.00
38020;DHT22;23829;51.350;17.286;2022-11-15T18:11:48;22.70;36.10
38020;DHT22;23829;51.350;17.286;2022-11-15T18:14:17;22.70;36.60
38020;DHT22;23829;51.350;17.286;2022-11-15T18:16:44;22.80;36.20
38020;DHT22;23829;51.350;17.286;2022-11-15T18:19:11;22.80;36.40
38020;DHT22;23829;51.350;17.286;2022-11-15T18:21:43;22.80;36.40
38020;DHT22;23829;51.350;17.286;2022-11-15T18:24:31;22.80;36.60
38020;DHT22;23829;51.350;17.286;2022-11-15T18:26:59;22.70;36.80
38020;DHT22;23829;51.350;17.286;2022-11-15T18:29:26;22.70;36.70
38020;DHT22;23829;51.350;17.286;2022-11-15T18:31:53;22.70;36.80
38020;DHT22;23829;51.350;17.286;2022-11-15T18:34:25;22.70;36.50
38020;DHT22;23829;51.350;17.286;2022-11-15T18:36:54;22.90;36.50